aviador You're here:

EBFN Decoded Metar

KOKSIJDE in BELGIUM
Report Time2017-11-20 05:25:00
UTC Time2017-11-20 05:56:24
Flight Rules vfr VFR
Wind200° at 05 kt
W.Decomp.*RWY 11: 5.0 kt RCW
W.Rank200° ranks 5
Current wind is below 200° avg. (8.6)
Visibility9999 m
Phenomena:N/A
Clouds:Scattered 024 Hf
Broken 030 Hf
Expected CloudBase > 400 ft AGL from Temp-Dew spread
Ceiling3,000 ft
Temp04°C (ISA -11)
Dew Point03°C (93% RH)
AAT0.7°C
QNH1020 hPa
Density Alt-1,430 ft
Elevation30 ft
Report Wrong Elevation
Raw Report
EBFN 200525Z 20005KT 9999 SCT024 BKN030 04/03 Q1020 WHT WHT TEMPO
GRN=

Extra information for EBFN:More info

Metar Taf Metar & Taf Last 4 Metars F.Rules Stats Wind Profile Meteogram Temp Stats Airport Information Weather charts Add Link Nearby VenuesMetar ALERT Operation Metar Decoded Social comments